(°C)
23°
22°
21°
20°
19°
18°
17°
(°C)
23°
21°
20°
19°
19°
18°
17°
JV
ZJZ
J
Z
ZSZ
ZJZ
Z
(km/h)
7-16
7-14
7-14
6-13
6-9
5-10
6-9
(mm)
3
2.3
0
0
0
0
0
(%)
46
37
32
24
20
24
25

Sluneční výška

/ -13.1°
sun-icon
UV 8
05:31
20:51
Ubývající měsíc (240°)
01:11
09:15

METAR pro Tirol (LOWI)

Čas Podmínky Teplota/
Rosný bod
Vítr Viditelnost Počasí Oblaky Tlak Změna Nezpracované
VFR 25°C / 13°C 240º 14kt Gust 26kt. Wind Shear present on Runway 26. >10km Light Thunderstorm Rain 3.00mm precipitation Vertical Visibility of 0ft.
Scattered Clouds 7000ft
Broken Clouds 10000ft
1020 Temporary: Thunderstorm Rain . Becoming: Light Showers Rain . LOWI 201950Z 24014G26KT 9999 -TSRA FEW050CB SCT070 BKN100 25/13 Q1020 WS R26 TEMPO TSRA BECMG -SHRA
VFR 27°C / 12°C 40º variable 010º to 070º 8kt >10km Light Showers Rain 3.00mm precipitation Vertical Visibility of 0ft. 1018 Temporary: from 2000 Wind 270º 20kt. Gust 35KT. Thunderstorm Rain . LOWI 201920Z 04008KT 010V070 9999 -SHRA FEW070CB 27/12 Q1018 TEMPO FM2000 27020G35KT TSRA
VFR 29°C / 11°C 100º variable 010º to 180º 6kt >10km - Few Clouds 7000ft 1017 No Significant change LOWI 201850Z 10006KT 010V180 9999 FEW070CB 29/11 Q1017 NOSIG
VFR 29°C / 10°C 140º variable 070º to 190º 10kt Gust 24kt >10km - Few Clouds 7000ft 1017 No Significant change LOWI 201820Z 14010G24KT 070V190 9999 FEW070CB 29/10 Q1017 NOSIG
VFR 29°C / 10°C 140º variable 080º to 190º 10kt Gust 21kt >10km - Few Clouds 8000ft 1017 No Significant change LOWI 201750Z 14010G21KT 080V190 9999 FEW080 29/10 Q1017 NOSIG
VFR 30°C / 10°C 140º variable 110º to 180º 11kt Gust 21kt >10km - Few Clouds 8000ft 1017 No Significant change LOWI 201720Z 14011G21KT 110V180 9999 FEW080 30/10 Q1017 NOSIG
VFR 31°C / 11°C variable 4kt >10km - Few Clouds 7000ft 1017 No Significant change LOWI 201650Z VRB04KT 9999 FEW070 31/11 Q1017 NOSIG
VFR 32°C / 9°C variable 3kt >10km - Few Clouds 7000ft 1017 No Significant change LOWI 201620Z VRB03KT 9999 FEW070 32/09 Q1017 NOSIG
VFR 32°C / 9°C 350º 4kt >10km - Few Clouds 7000ft 1018 No Significant change LOWI 201550Z 35004KT 9999 FEW070 32/09 Q1018 NOSIG
VFR 32°C / 10°C 50º variable 350º to 090º 4kt >10km - Few Clouds 7000ft 1018 No Significant change LOWI 201520Z 05004KT 350V090 9999 FEW070 32/10 Q1018 NOSIG
VFR 32°C / 12°C 70º variable 030º to 180º 3kt >10km - Few Clouds 7000ft 1018 No Significant change LOWI 201450Z 07003KT 030V180 9999 FEW070 32/12 Q1018 NOSIG
VFR 31°C / 11°C 60º variable 360º to 110º 5kt >10km - Few Clouds 7000ft 1019 No Significant change LOWI 201420Z 06005KT 360V110 9999 FEW070 31/11 Q1019 NOSIG
VFR 30°C / 12°C 90º variable 060º to 120º 4kt >10km - Few Clouds 7000ft 1019 No Significant change LOWI 201350Z 09004KT 060V120 9999 FEW070 30/12 Q1019 NOSIG
VFR 30°C / 12°C variable 3kt >10km - Few Clouds 7000ft 1020 No Significant change LOWI 201320Z VRB03KT 9999 FEW070 30/12 Q1020 NOSIG
VFR 29°C / 11°C 20º variable 300º to 110º 3kt >10km - Few Clouds 7000ft 1021 No Significant change LOWI 201250Z 02003KT 300V110 9999 FEW070 29/11 Q1021 NOSIG
VFR 28°C / 12°C variable 2kt >10km - Scattered Clouds 6500ft 1021 No Significant change LOWI 201220Z VRB02KT 9999 SCT065 28/12 Q1021 NOSIG
VFR 27°C / 14°C variable 3kt >10km - Scattered Clouds 6500ft 1022 No Significant change LOWI 201150Z VRB03KT 9999 SCT065 27/14 Q1022 NOSIG
VFR 26°C / 13°C variable 3kt >10km - Scattered Clouds 6500ft 1022 No Significant change LOWI 201120Z VRB03KT 9999 SCT065 26/13 Q1022 NOSIG
VFR 25°C / 14°C 300º variable 240º to 030º 3kt >10km - Few Clouds 7000ft 1023 No Significant change LOWI 201050Z 30003KT 240V030 9999 FEW070 25/14 Q1023 NOSIG
VFR 24°C / 13°C 50º variable 350º to 160º 3kt >10km - Few Clouds 7000ft 1024 No Significant change LOWI 201020Z 05003KT 350V160 9999 FEW070 24/13 Q1024 NOSIG
VFR 23°C / 14°C variable 2kt >10km - Few Clouds 7000ft 1025 No Significant change LOWI 200950Z VRB02KT 9999 FEW070 23/14 Q1025 NOSIG
VFR 22°C / 14°C variable 4kt >10km - Few Clouds 7000ft 1025 No Significant change LOWI 200920Z VRB04KT 9999 FEW070 22/14 Q1025 NOSIG
VFR 21°C / 14°C 270º variable 220º to 300º 7kt >10km - Clouds and Visibility OK 1026 No Significant change LOWI 200850Z 27007KT 220V300 CAVOK 21/14 Q1026 NOSIG
VFR 20°C / 14°C 260º variable 220º to 300º 5kt >10km - Few Clouds 4000ft 1026 No Significant change LOWI 200820Z 26005KT 220V300 9999 FEW040 20/14 Q1026 NOSIG

VFR

25°C / 13°C

[Víc]
Vítr 240º 14kt Gust 26kt. Wind Shear present on Runway 26.
Viditelnost >10km
Počasí Light Thunderstorm Rain 3.00mm precipitation
Oblaky Vertical Visibility of 0ft.
Scattered Clouds 7000ft
Broken Clouds 10000ft
Tlak 1020
Změna Temporary: Thunderstorm Rain . Becoming: Light Showers Rain .
Nezpracované LOWI 201950Z 24014G26KT 9999 -TSRA FEW050CB SCT070 BKN100 25/13 Q1020 WS R26 TEMPO TSRA BECMG -SHRA

VFR

27°C / 12°C

[Víc]
Vítr 40º variable 010º to 070º 8kt
Viditelnost >10km
Počasí Light Showers Rain 3.00mm precipitation
Oblaky Vertical Visibility of 0ft.
Tlak 1018
Změna Temporary: from 2000 Wind 270º 20kt. Gust 35KT. Thunderstorm Rain .
Nezpracované LOWI 201920Z 04008KT 010V070 9999 -SHRA FEW070CB 27/12 Q1018 TEMPO FM2000 27020G35KT TSRA

VFR

29°C / 11°C

[Víc]
Vítr 100º variable 010º to 180º 6kt
Viditelnost >10km
Počasí -
Oblaky Few Clouds 7000ft
Tlak 1017
Změna No Significant change
Nezpracované LOWI 201850Z 10006KT 010V180 9999 FEW070CB 29/11 Q1017 NOSIG

VFR

29°C / 10°C

[Víc]
Vítr 140º variable 070º to 190º 10kt Gust 24kt
Viditelnost >10km
Počasí -
Oblaky Few Clouds 7000ft
Tlak 1017
Změna No Significant change
Nezpracované LOWI 201820Z 14010G24KT 070V190 9999 FEW070CB 29/10 Q1017 NOSIG

VFR

29°C / 10°C

[Víc]
Vítr 140º variable 080º to 190º 10kt Gust 21kt
Viditelnost >10km
Počasí -
Oblaky Few Clouds 8000ft
Tlak 1017
Změna No Significant change
Nezpracované LOWI 201750Z 14010G21KT 080V190 9999 FEW080 29/10 Q1017 NOSIG

VFR

30°C / 10°C

[Víc]
Vítr 140º variable 110º to 180º 11kt Gust 21kt
Viditelnost >10km
Počasí -
Oblaky Few Clouds 8000ft
Tlak 1017
Změna No Significant change
Nezpracované LOWI 201720Z 14011G21KT 110V180 9999 FEW080 30/10 Q1017 NOSIG

VFR

31°C / 11°C

[Víc]
Vítr variable 4kt
Viditelnost >10km
Počasí -
Oblaky Few Clouds 7000ft
Tlak 1017
Změna No Significant change
Nezpracované LOWI 201650Z VRB04KT 9999 FEW070 31/11 Q1017 NOSIG

VFR

32°C / 9°C

[Víc]
Vítr variable 3kt
Viditelnost >10km
Počasí -
Oblaky Few Clouds 7000ft
Tlak 1017
Změna No Significant change
Nezpracované LOWI 201620Z VRB03KT 9999 FEW070 32/09 Q1017 NOSIG

VFR

32°C / 9°C

[Víc]
Vítr 350º 4kt
Viditelnost >10km
Počasí -
Oblaky Few Clouds 7000ft
Tlak 1018
Změna No Significant change
Nezpracované LOWI 201550Z 35004KT 9999 FEW070 32/09 Q1018 NOSIG

VFR

32°C / 10°C

[Víc]
Vítr 50º variable 350º to 090º 4kt
Viditelnost >10km
Počasí -
Oblaky Few Clouds 7000ft
Tlak 1018
Změna No Significant change
Nezpracované LOWI 201520Z 05004KT 350V090 9999 FEW070 32/10 Q1018 NOSIG

VFR

32°C / 12°C

[Víc]
Vítr 70º variable 030º to 180º 3kt
Viditelnost >10km
Počasí -
Oblaky Few Clouds 7000ft
Tlak 1018
Změna No Significant change
Nezpracované LOWI 201450Z 07003KT 030V180 9999 FEW070 32/12 Q1018 NOSIG

VFR

31°C / 11°C

[Víc]
Vítr 60º variable 360º to 110º 5kt
Viditelnost >10km
Počasí -
Oblaky Few Clouds 7000ft
Tlak 1019
Změna No Significant change
Nezpracované LOWI 201420Z 06005KT 360V110 9999 FEW070 31/11 Q1019 NOSIG

VFR

30°C / 12°C

[Víc]
Vítr 90º variable 060º to 120º 4kt
Viditelnost >10km
Počasí -
Oblaky Few Clouds 7000ft
Tlak 1019
Změna No Significant change
Nezpracované LOWI 201350Z 09004KT 060V120 9999 FEW070 30/12 Q1019 NOSIG

VFR

30°C / 12°C

[Víc]
Vítr variable 3kt
Viditelnost >10km
Počasí -
Oblaky Few Clouds 7000ft
Tlak 1020
Změna No Significant change
Nezpracované LOWI 201320Z VRB03KT 9999 FEW070 30/12 Q1020 NOSIG

VFR

29°C / 11°C

[Víc]
Vítr 20º variable 300º to 110º 3kt
Viditelnost >10km
Počasí -
Oblaky Few Clouds 7000ft
Tlak 1021
Změna No Significant change
Nezpracované LOWI 201250Z 02003KT 300V110 9999 FEW070 29/11 Q1021 NOSIG

VFR

28°C / 12°C

[Víc]
Vítr variable 2kt
Viditelnost >10km
Počasí -
Oblaky Scattered Clouds 6500ft
Tlak 1021
Změna No Significant change
Nezpracované LOWI 201220Z VRB02KT 9999 SCT065 28/12 Q1021 NOSIG

VFR

27°C / 14°C

[Víc]
Vítr variable 3kt
Viditelnost >10km
Počasí -
Oblaky Scattered Clouds 6500ft
Tlak 1022
Změna No Significant change
Nezpracované LOWI 201150Z VRB03KT 9999 SCT065 27/14 Q1022 NOSIG

VFR

26°C / 13°C

[Víc]
Vítr variable 3kt
Viditelnost >10km
Počasí -
Oblaky Scattered Clouds 6500ft
Tlak 1022
Změna No Significant change
Nezpracované LOWI 201120Z VRB03KT 9999 SCT065 26/13 Q1022 NOSIG

VFR

25°C / 14°C

[Víc]
Vítr 300º variable 240º to 030º 3kt
Viditelnost >10km
Počasí -
Oblaky Few Clouds 7000ft
Tlak 1023
Změna No Significant change
Nezpracované LOWI 201050Z 30003KT 240V030 9999 FEW070 25/14 Q1023 NOSIG

VFR

24°C / 13°C

[Víc]
Vítr 50º variable 350º to 160º 3kt
Viditelnost >10km
Počasí -
Oblaky Few Clouds 7000ft
Tlak 1024
Změna No Significant change
Nezpracované LOWI 201020Z 05003KT 350V160 9999 FEW070 24/13 Q1024 NOSIG

VFR

23°C / 14°C

[Víc]
Vítr variable 2kt
Viditelnost >10km
Počasí -
Oblaky Few Clouds 7000ft
Tlak 1025
Změna No Significant change
Nezpracované LOWI 200950Z VRB02KT 9999 FEW070 23/14 Q1025 NOSIG

VFR

22°C / 14°C

[Víc]
Vítr variable 4kt
Viditelnost >10km
Počasí -
Oblaky Few Clouds 7000ft
Tlak 1025
Změna No Significant change
Nezpracované LOWI 200920Z VRB04KT 9999 FEW070 22/14 Q1025 NOSIG

VFR

21°C / 14°C

[Víc]
Vítr 270º variable 220º to 300º 7kt
Viditelnost >10km
Počasí -
Oblaky Clouds and Visibility OK
Tlak 1026
Změna No Significant change
Nezpracované LOWI 200850Z 27007KT 220V300 CAVOK 21/14 Q1026 NOSIG

VFR

20°C / 14°C

[Víc]
Vítr 260º variable 220º to 300º 5kt
Viditelnost >10km
Počasí -
Oblaky Few Clouds 4000ft
Tlak 1026
Změna No Significant change
Nezpracované LOWI 200820Z 26005KT 220V300 9999 FEW040 20/14 Q1026 NOSIG

TAF pro Tirol (LOWI)

From till


Maximum Temperature 28ºC on . Minimum Temperature 17ºC on .
From till Wind variable 3kt. Visibility 10km or more. Few Clouds 7000ft.
With 30% probability, Temporarly from till Wind 270º 15kt. Gust 30kt. Thunderstorm Rain . Scattered Clouds 3000ft. Broken Clouds 5000ft.
Temporarly from till Wind 300º 15kt. Showers Rain . Broken Clouds 3000ft. Few Clouds 4000ft.
Becoming from till Wind 80º 8kt. Visibility 10km or more. Few Clouds 7000ft.

Nezpracované: TAF COR LOWI 201715Z 2018/2118 VRB03KT 9999 FEW070 TX28/2018Z TN17/2104Z PROB30 TEMPO 2018/2022 27015G30KT TSRA SCT030CB BKN050 TEMPO 2102/2108 30015KT SHRA BKN030 FEW040TCU BECMG 2110/2112 08008KT

Radar pro Tirol

Mrholení
Slabé
Střední
Silné
Velmi silné
Kroupy

Značka lokality je umístněna na Tirol. Tato animace ukazuje srážky zaznamenané radarem za poslední hodinu a také 2h předpověď. Mrholení nebo slabé sněžení může být pro radar neviditelné. Intenzita srážek je barevně označena od světle modré po oranžovou.
Copyright 2022 Deutscher Wetterdienst / meteoblue.

Aktuální snímky ze satelitu a srážky pro Tirol, Rakousko

Značka polohy je umístěna na Tirol. [Víc]

Satelitní snímek v reálném čase kombinuje viditelné světlo během dne s infračerveným zářením během noci. V noci není obraz tmavý, protože infračervené záření dokáže detekovat teplotní rozdíly. Nízká oblačnost a mlha se bohužel těžko odlišují od pozemních teplot, a proto mohou být během noci téměř neviditelné. Satelitní snímky z Meteosatu pro Evropu jsou aktualizovány v reálném čase každých 5 minut. Snímky z GOES-16/GOES-17 (Severní a Jižní Amerika) a Himawari (Asie) jsou aktualizovány) každých 10 minut.

Srážky jsou odhadované na základě radaru a satelitů. V noci jsou odhady srážek ze satelitů méně přesné než během dne. Oranžové křížky označují místa, kde byl zaznamenán blesk (za Evropa).

Copyright 2022 EUMETSAT / meteoblue. Údaje o blescích poskytuje nowcast.

Zpět nahoru